Carnival Victory — 3FFL8 — position and weather

sailwx.info

Track history (hours):
 
Tides and Currents Weather Stations Pressure Air Temp Water Temp Dewpoint Dewpoint Depression Visibility Wind Speed Wind Dir Waves Ship Positions

Carnival Victory

Operator: Carnival Cruise Lines

Last reported at 2020-Jan-28 03:30 UTC. Time now 2020-Jan-28 07:22 UTC.
Position N 24°42' W 080°27'.

Type: Passenger vessel. MMSI: 355263000.

Date/timePositionNaut miles runAvg speedWind from/ knotsBaromVisibWave heightAir tempDewpointWater temp
2020-Jan-28 03:30N 24°42' W 080°27'4412.6
2020-Jan-28 00:00N 25°17' W 079°56'2713.7
2020-Jan-27 22:01N 25°43' W 080°02'8 2.0
2020-Jan-27 17:55N 25°47' W 080°10'0 0.0
2020-Jan-27 16:58N 25°47' W 080°10'0 0.0
2020-Jan-27 16:28N 25°47' W 080°10'0 0.0
2020-Jan-27 15:31N 25°47' W 080°10'0 0.0
2020-Jan-27 12:28N 25°47' W 080°10'0 0.0
2020-Jan-27 12:01N 25°47' W 080°10'1 1.5
2020-Jan-27 11:31N 25°47' W 080°11'5810.6
2020-Jan-27 06:00N 26°15' W 079°14'7 0.1
2020-Jan-25 03:30N 26°11' W 079°20'2610.3
2020-Jan-25 01:00N 25°57' W 079°44'510.1
2020-Jan-25 00:30N 25°54' W 079°49'14 9.5
2020-Jan-24 23:00N 25°47' W 080°02'7 2.8
2020-Jan-24 20:28N 25°47' W 080°10'0 0.0
2020-Jan-24 19:55N 25°47' W 080°10'0 0.0
2020-Jan-24 19:28N 25°47' W 080°10'0 0.0
2020-Jan-24 15:55N 25°47' W 080°10'0 0.0
2020-Jan-24 14:58N 25°47' W 080°10'0 0.0
2020-Jan-24 13:58N 25°47' W 080°10'0 0.0
2020-Jan-24 11:58N 25°47' W 080°10'6 6.6
2020-Jan-24 11:00N 25°47' W 080°03'3 6.8
2020-Jan-24 10:30N 25°45' W 080°00'510.4
2020-Jan-24 10:00N 25°42' W 079°56'49912.8
2020-Jan-22 18:59N 20°29' W 086°59'17 4.2
2020-Jan-22 15:00N 20°43' W 086°50'47711.4
2020-Jan-20 21:00N 25°46' W 080°10'0 0.2
2020-Jan-20 18:28N 25°47' W 080°10'0 0.0
2020-Jan-20 16:58N 25°47' W 080°10'0 0.0
2020-Jan-20 14:58N 25°47' W 080°10'0 0.0
2020-Jan-20 13:28N 25°47' W 080°10'0 0.0
2020-Jan-20 12:00N 25°47' W 080°10'2 2.0
2020-Jan-20 11:00N 25°46' W 080°08'1711.5
2020-Jan-20 09:30N 25°52' W 079°50'714.3
2020-Jan-20 09:00N 25°55' W 079°43'3115.7
2020-Jan-20 07:00N 26°14' W 079°16'7 0.2
2020-Jan-19 00:54N 26°18' W 079°08'716.7
2020-Jan-19 00:30N 26°15' W 079°15'8 3.3
2020-Jan-18 22:00N 26°10' W 079°23'1019.7
2020-Jan-18 21:30N 26°15' W 079°13'6 4.6
2020-Jan-18 20:08N 26°21' W 079°15'711.3
2020-Jan-18 19:30N 26°18' W 079°22'2114.4
2020-Jan-18 18:00N 25°57' W 079°30'714.6
2020-Jan-18 17:30N 25°50' W 079°32'1514.6
2020-Jan-18 16:30N 25°36' W 079°36'18 1.4
2020-Jan-18 04:00N 25°18' W 079°38'  
Track history (hours):
 
Tides and Currents Weather Stations Pressure Air Temp Water Temp Dewpoint Dewpoint Depression Visibility Wind Speed Wind Dir Waves Ship Positions

Carnival Victory

Operator: Carnival Cruise Lines

Last reported at 2020-Jan-28 03:30 UTC. Time now 2020-Jan-28 07:22 UTC.
Position N 24°42' W 080°27'.

Type: Passenger vessel. MMSI: 355263000.

Date/timePositionNaut miles runAvg speedWind from/ knotsBaromVisibWave heightAir tempDewpointWater temp
2020-Jan-28 03:30N 24°42' W 080°27'4412.6
2020-Jan-28 00:00N 25°17' W 079°56'2713.7
2020-Jan-27 22:01N 25°43' W 080°02'8 2.0
2020-Jan-27 17:55N 25°47' W 080°10'0 0.0
2020-Jan-27 16:58N 25°47' W 080°10'0 0.0
2020-Jan-27 16:28N 25°47' W 080°10'0 0.0
2020-Jan-27 15:31N 25°47' W 080°10'0 0.0
2020-Jan-27 12:28N 25°47' W 080°10'0 0.0
2020-Jan-27 12:01N 25°47' W 080°10'1 1.5
2020-Jan-27 11:31N 25°47' W 080°11'5810.6
2020-Jan-27 06:00N 26°15' W 079°14'7 0.1
2020-Jan-25 03:30N 26°11' W 079°20'2610.3
2020-Jan-25 01:00N 25°57' W 079°44'510.1
2020-Jan-25 00:30N 25°54' W 079°49'14 9.5
2020-Jan-24 23:00N 25°47' W 080°02'7 2.8
2020-Jan-24 20:28N 25°47' W 080°10'0 0.0
2020-Jan-24 19:55N 25°47' W 080°10'0 0.0
2020-Jan-24 19:28N 25°47' W 080°10'0 0.0
2020-Jan-24 15:55N 25°47' W 080°10'0 0.0
2020-Jan-24 14:58N 25°47' W 080°10'0 0.0
2020-Jan-24 13:58N 25°47' W 080°10'0 0.0
2020-Jan-24 11:58N 25°47' W 080°10'6 6.6
2020-Jan-24 11:00N 25°47' W 080°03'3 6.8
2020-Jan-24 10:30N 25°45' W 080°00'510.4
2020-Jan-24 10:00N 25°42' W 079°56'49912.8
2020-Jan-22 18:59N 20°29' W 086°59'17 4.2
2020-Jan-22 15:00N 20°43' W 086°50'47711.4
2020-Jan-20 21:00N 25°46' W 080°10'0 0.2
2020-Jan-20 18:28N 25°47' W 080°10'0 0.0
2020-Jan-20 16:58N 25°47' W 080°10'0 0.0
2020-Jan-20 14:58N 25°47' W 080°10'0 0.0
2020-Jan-20 13:28N 25°47' W 080°10'0 0.0
2020-Jan-20 12:00N 25°47' W 080°10'2 2.0
2020-Jan-20 11:00N 25°46' W 080°08'1711.5
2020-Jan-20 09:30N 25°52' W 079°50'714.3
2020-Jan-20 09:00N 25°55' W 079°43'3115.7
2020-Jan-20 07:00N 26°14' W 079°16'7 0.2
2020-Jan-19 00:54N 26°18' W 079°08'716.7
2020-Jan-19 00:30N 26°15' W 079°15'8 3.3
2020-Jan-18 22:00N 26°10' W 079°23'1019.7
2020-Jan-18 21:30N 26°15' W 079°13'6 4.6
2020-Jan-18 20:08N 26°21' W 079°15'711.3
2020-Jan-18 19:30N 26°18' W 079°22'2114.4
2020-Jan-18 18:00N 25°57' W 079°30'714.6
2020-Jan-18 17:30N 25°50' W 079°32'1514.6
2020-Jan-18 16:30N 25°36' W 079°36'18 1.4
2020-Jan-18 04:00N 25°18' W 079°38'  

Dump ship's entire track history